sensor_id;sensor_type;location;lat;lon;timestamp;temperature;humidity
17370;DHT22;8802;52.402;4.920;2023-02-12T00:01:40;11.90;98.30
17370;DHT22;8802;52.402;4.920;2023-02-12T00:04:07;12.00;98.40
17370;DHT22;8802;52.402;4.920;2023-02-12T00:06:35;11.90;98.30
17370;DHT22;8802;52.402;4.920;2023-02-12T00:09:03;11.90;98.30
17370;DHT22;8802;52.402;4.920;2023-02-12T00:11:30;12.00;98.30
17370;DHT22;8802;52.402;4.920;2023-02-12T00:13:57;11.90;98.30
17370;DHT22;8802;52.402;4.920;2023-02-12T00:16:26;12.00;98.40
17370;DHT22;8802;52.402;4.920;2023-02-12T00:18:54;11.90;98.30
17370;DHT22;8802;52.402;4.920;2023-02-12T00:21:22;11.90;98.30
17370;DHT22;8802;52.402;4.920;2023-02-12T00:23:51;11.90;98.20
17370;DHT22;8802;52.402;4.920;2023-02-12T00:26:19;11.90;98.20
17370;DHT22;8802;52.402;4.920;2023-02-12T00:28:46;11.90;98.20
17370;DHT22;8802;52.402;4.920;2023-02-12T00:31:15;11.90;98.20
17370;DHT22;8802;52.402;4.920;2023-02-12T00:33:42;11.90;98.20
17370;DHT22;8802;52.402;4.920;2023-02-12T00:36:13;11.90;98.20
17370;DHT22;8802;52.402;4.920;2023-02-12T00:38:40;11.90;98.20
17370;DHT22;8802;52.402;4.920;2023-02-12T00:41:09;11.90;98.20
17370;DHT22;8802;52.402;4.920;2023-02-12T00:43:35;11.90;98.10
17370;DHT22;8802;52.402;4.920;2023-02-12T00:46:03;11.90;98.10
17370;DHT22;8802;52.402;4.920;2023-02-12T00:48:31;11.80;98.10
17370;DHT22;8802;52.402;4.920;2023-02-12T00:50:58;11.90;98.10
17370;DHT22;8802;52.402;4.920;2023-02-12T00:53:25;11.80;98.10
17370;DHT22;8802;52.402;4.920;2023-02-12T00:55:52;11.80;98.10
17370;DHT22;8802;52.402;4.920;2023-02-12T00:58:20;11.80;98.10
17370;DHT22;8802;52.402;4.920;2023-02-12T01:00:47;11.80;98.10
17370;DHT22;8802;52.402;4.920;2023-02-12T01:03:14;11.80;98.50
17370;DHT22;8802;52.402;4.920;2023-02-12T01:05:41;11.80;98.10
17370;DHT22;8802;52.402;4.920;2023-02-12T01:08:10;11.80;98.10
17370;DHT22;8802;52.402;4.920;2023-02-12T01:10:37;11.70;98.10
17370;DHT22;8802;52.402;4.920;2023-02-12T01:13:04;11.70;98.10
17370;DHT22;8802;52.402;4.920;2023-02-12T01:15:32;11.70;98.10
17370;DHT22;8802;52.402;4.920;2023-02-12T01:17:59;11.70;98.20
17370;DHT22;8802;52.402;4.920;2023-02-12T01:20:26;11.70;98.60
17370;DHT22;8802;52.402;4.920;2023-02-12T01:22:53;11.70;98.20
17370;DHT22;8802;52.402;4.920;2023-02-12T01:25:20;11.70;98.20
17370;DHT22;8802;52.402;4.920;2023-02-12T01:27:46;11.60;98.20
17370;DHT22;8802;52.402;4.920;2023-02-12T01:30:14;11.60;98.20
17370;DHT22;8802;52.402;4.920;2023-02-12T01:32:43;11.60;98.20
17370;DHT22;8802;52.402;4.920;2023-02-12T01:35:10;11.60;98.20
17370;DHT22;8802;52.402;4.920;2023-02-12T01:37:37;11.60;98.50
17370;DHT22;8802;52.402;4.920;2023-02-12T01:40:05;11.60;98.10
17370;DHT22;8802;52.402;4.920;2023-02-12T01:42:33;11.50;98.50
17370;DHT22;8802;52.402;4.920;2023-02-12T01:48:11;11.50;98.10
17370;DHT22;8802;52.402;4.920;2023-02-12T01:50:39;11.50;98.10
17370;DHT22;8802;52.402;4.920;2023-02-12T01:53:07;11.50;98.10
17370;DHT22;8802;52.402;4.920;2023-02-12T01:55:34;11.50;98.20
17370;DHT22;8802;52.402;4.920;2023-02-12T01:58:01;11.40;98.20
17370;DHT22;8802;52.402;4.920;2023-02-12T02:00:29;11.40;98.20
17370;DHT22;8802;52.402;4.920;2023-02-12T02:02:59;11.40;98.20
17370;DHT22;8802;52.402;4.920;2023-02-12T02:05:34;11.40;98.30
17370;DHT22;8802;52.402;4.920;2023-02-12T02:08:04;11.40;98.30
17370;DHT22;8802;52.402;4.920;2023-02-12T02:10:31;11.40;98.20
17370;DHT22;8802;52.402;4.920;2023-02-12T02:12:58;11.40;98.00
17370;DHT22;8802;52.402;4.920;2023-02-12T02:15:46;11.30;98.00
17370;DHT22;8802;52.402;4.920;2023-02-12T02:18:18;11.30;98.10
17370;DHT22;8802;52.402;4.920;2023-02-12T02:21:24;11.20;98.20
17370;DHT22;8802;52.402;4.920;2023-02-12T02:24:15;11.20;98.20
17370;DHT22;8802;52.402;4.920;2023-02-12T02:27:13;11.20;98.70
17370;DHT22;8802;52.402;4.920;2023-02-12T02:32:36;11.10;98.40
17370;DHT22;8802;52.402;4.920;2023-02-12T02:35:10;11.10;98.40
17370;DHT22;8802;52.402;4.920;2023-02-12T02:37:45;11.10;98.50
17370;DHT22;8802;52.402;4.920;2023-02-12T02:40:16;11.10;98.40
17370;DHT22;8802;52.402;4.920;2023-02-12T02:42:47;11.00;98.40
17370;DHT22;8802;52.402;4.920;2023-02-12T02:45:18;11.00;98.40
17370;DHT22;8802;52.402;4.920;2023-02-12T02:47:51;11.00;98.30
17370;DHT22;8802;52.402;4.920;2023-02-12T02:50:22;11.00;98.30
17370;DHT22;8802;52.402;4.920;2023-02-12T02:52:53;11.00;98.40
17370;DHT22;8802;52.402;4.920;2023-02-12T02:55:24;11.00;98.50
17370;DHT22;8802;52.402;4.920;2023-02-12T02:57:56;10.90;98.40
17370;DHT22;8802;52.402;4.920;2023-02-12T03:00:30;10.90;98.50
17370;DHT22;8802;52.402;4.920;2023-02-12T03:03:01;10.90;98.50
17370;DHT22;8802;52.402;4.920;2023-02-12T03:05:32;10.90;98.50
17370;DHT22;8802;52.402;4.920;2023-02-12T03:08:04;10.90;98.50
17370;DHT22;8802;52.402;4.920;2023-02-12T03:10:36;10.90;98.50
17370;DHT22;8802;52.402;4.920;2023-02-12T03:13:07;10.90;98.50
17370;DHT22;8802;52.402;4.920;2023-02-12T03:15:38;10.90;98.50
17370;DHT22;8802;52.402;4.920;2023-02-12T03:18:12;10.90;98.60
17370;DHT22;8802;52.402;4.920;2023-02-12T03:20:44;10.80;98.50
17370;DHT22;8802;52.402;4.920;2023-02-12T03:23:17;10.80;98.60
17370;DHT22;8802;52.402;4.920;2023-02-12T03:25:50;10.80;98.50
17370;DHT22;8802;52.402;4.920;2023-02-12T03:28:22;10.90;98.60
17370;DHT22;8802;52.402;4.920;2023-02-12T03:30:55;10.80;98.60
17370;DHT22;8802;52.402;4.920;2023-02-12T03:33:29;10.80;98.60
17370;DHT22;8802;52.402;4.920;2023-02-12T03:36:05;10.90;98.70
17370;DHT22;8802;52.402;4.920;2023-02-12T03:38:36;10.80;98.70
17370;DHT22;8802;52.402;4.920;2023-02-12T03:41:07;10.80;98.70
17370;DHT22;8802;52.402;4.920;2023-02-12T03:43:43;10.80;98.80
17370;DHT22;8802;52.402;4.920;2023-02-12T03:46:19;10.80;98.70
17370;DHT22;8802;52.402;4.920;2023-02-12T03:48:57;10.80;98.80
17370;DHT22;8802;52.402;4.920;2023-02-12T03:51:30;10.80;99.20
17370;DHT22;8802;52.402;4.920;2023-02-12T03:54:00;10.80;98.80
17370;DHT22;8802;52.402;4.920;2023-02-12T03:56:31;10.90;98.90
17370;DHT22;8802;52.402;4.920;2023-02-12T03:58:59;10.80;98.90
17370;DHT22;8802;52.402;4.920;2023-02-12T04:01:26;10.80;99.10
17370;DHT22;8802;52.402;4.920;2023-02-12T04:03:55;10.80;98.90
17370;DHT22;8802;52.402;4.920;2023-02-12T04:06:24;10.80;98.90
17370;DHT22;8802;52.402;4.920;2023-02-12T04:08:51;10.80;98.90
17370;DHT22;8802;52.402;4.920;2023-02-12T04:11:24;10.80;99.00
17370;DHT22;8802;52.402;4.920;2023-02-12T04:14:06;10.90;99.00
17370;DHT22;8802;52.402;4.920;2023-02-12T04:16:39;10.80;99.00
17370;DHT22;8802;52.402;4.920;2023-02-12T04:19:13;10.90;99.00
17370;DHT22;8802;52.402;4.920;2023-02-12T04:21:51;10.90;99.00
17370;DHT22;8802;52.402;4.920;2023-02-12T04:24:30;10.90;99.00
17370;DHT22;8802;52.402;4.920;2023-02-12T04:27:08;10.90;99.00
17370;DHT22;8802;52.402;4.920;2023-02-12T04:29:41;10.90;99.00
17370;DHT22;8802;52.402;4.920;2023-02-12T04:32:15;10.90;99.00
17370;DHT22;8802;52.402;4.920;2023-02-12T04:34:49;10.90;99.00
17370;DHT22;8802;52.402;4.920;2023-02-12T04:37:20;10.90;99.00
17370;DHT22;8802;52.402;4.920;2023-02-12T04:39:48;10.90;99.10
17370;DHT22;8802;52.402;4.920;2023-02-12T04:42:17;10.90;99.10
17370;DHT22;8802;52.402;4.920;2023-02-12T04:44:44;10.90;99.10
17370;DHT22;8802;52.402;4.920;2023-02-12T04:47:12;10.90;99.10
17370;DHT22;8802;52.402;4.920;2023-02-12T04:49:39;11.00;99.20
17370;DHT22;8802;52.402;4.920;2023-02-12T04:52:07;11.00;99.20
17370;DHT22;8802;52.402;4.920;2023-02-12T04:54:34;11.00;99.10
17370;DHT22;8802;52.402;4.920;2023-02-12T04:57:01;11.00;99.20
17370;DHT22;8802;52.402;4.920;2023-02-12T04:59:28;11.00;99.20
17370;DHT22;8802;52.402;4.920;2023-02-12T05:01:54;11.00;99.20
17370;DHT22;8802;52.402;4.920;2023-02-12T05:04:21;11.00;99.20
17370;DHT22;8802;52.402;4.920;2023-02-12T05:06:48;11.00;99.20
17370;DHT22;8802;52.402;4.920;2023-02-12T05:09:18;11.10;99.20
17370;DHT22;8802;52.402;4.920;2023-02-12T05:11:45;11.00;99.20
17370;DHT22;8802;52.402;4.920;2023-02-12T05:14:12;11.00;99.20
17370;DHT22;8802;52.402;4.920;2023-02-12T05:16:38;11.10;99.20
17370;DHT22;8802;52.402;4.920;2023-02-12T05:19:05;11.10;99.20
17370;DHT22;8802;52.402;4.920;2023-02-12T05:21:34;11.10;99.20
17370;DHT22;8802;52.402;4.920;2023-02-12T05:24:01;11.10;99.20
17370;DHT22;8802;52.402;4.920;2023-02-12T05:26:29;11.10;99.20
17370;DHT22;8802;52.402;4.920;2023-02-12T05:28:56;11.20;99.20
17370;DHT22;8802;52.402;4.920;2023-02-12T05:31:23;11.20;99.10
17370;DHT22;8802;52.402;4.920;2023-02-12T05:33:50;11.10;99.10
17370;DHT22;8802;52.402;4.920;2023-02-12T05:36:18;11.20;99.10
17370;DHT22;8802;52.402;4.920;2023-02-12T05:38:46;11.20;99.10
17370;DHT22;8802;52.402;4.920;2023-02-12T05:41:14;11.20;99.00
17370;DHT22;8802;52.402;4.920;2023-02-12T05:43:42;11.20;99.00
17370;DHT22;8802;52.402;4.920;2023-02-12T05:46:10;11.20;98.90
17370;DHT22;8802;52.402;4.920;2023-02-12T05:48:38;11.20;98.90
17370;DHT22;8802;52.402;4.920;2023-02-12T05:51:06;11.20;99.00
17370;DHT22;8802;52.402;4.920;2023-02-12T05:53:34;11.30;99.00
17370;DHT22;8802;52.402;4.920;2023-02-12T05:56:12;11.30;99.00
17370;DHT22;8802;52.402;4.920;2023-02-12T05:58:42;11.20;98.80
17370;DHT22;8802;52.402;4.920;2023-02-12T06:01:11;11.30;98.80
17370;DHT22;8802;52.402;4.920;2023-02-12T06:03:38;11.30;98.80
17370;DHT22;8802;52.402;4.920;2023-02-12T06:06:05;11.30;98.80
17370;DHT22;8802;52.402;4.920;2023-02-12T06:08:32;11.30;98.80
17370;DHT22;8802;52.402;4.920;2023-02-12T06:11:00;11.30;98.70
17370;DHT22;8802;52.402;4.920;2023-02-12T06:13:28;11.30;98.70
17370;DHT22;8802;52.402;4.920;2023-02-12T06:15:56;11.30;98.60
17370;DHT22;8802;52.402;4.920;2023-02-12T06:18:23;11.30;98.60
17370;DHT22;8802;52.402;4.920;2023-02-12T06:20:50;11.30;99.00
17370;DHT22;8802;52.402;4.920;2023-02-12T06:23:18;11.30;98.60
17370;DHT22;8802;52.402;4.920;2023-02-12T06:25:45;11.30;98.60
17370;DHT22;8802;52.402;4.920;2023-02-12T06:28:12;11.30;98.50
17370;DHT22;8802;52.402;4.920;2023-02-12T06:30:39;11.40;98.60
17370;DHT22;8802;52.402;4.920;2023-02-12T06:33:07;11.40;98.50
17370;DHT22;8802;52.402;4.920;2023-02-12T06:35:34;11.50;98.50
17370;DHT22;8802;52.402;4.920;2023-02-12T06:38:01;11.40;98.40
17370;DHT22;8802;52.402;4.920;2023-02-12T06:40:28;11.40;98.40
17370;DHT22;8802;52.402;4.920;2023-02-12T06:42:55;11.40;98.40
17370;DHT22;8802;52.402;4.920;2023-02-12T06:45:22;11.40;98.40
17370;DHT22;8802;52.402;4.920;2023-02-12T06:47:48;11.40;98.40
17370;DHT22;8802;52.402;4.920;2023-02-12T06:50:17;11.40;98.40
17370;DHT22;8802;52.402;4.920;2023-02-12T06:52:44;11.40;98.40
17370;DHT22;8802;52.402;4.920;2023-02-12T06:55:11;11.40;98.30
17370;DHT22;8802;52.402;4.920;2023-02-12T06:57:37;11.40;98.30
17370;DHT22;8802;52.402;4.920;2023-02-12T07:00:05;11.40;98.20
17370;DHT22;8802;52.402;4.920;2023-02-12T07:02:32;11.40;98.20
17370;DHT22;8802;52.402;4.920;2023-02-12T07:04:59;11.40;98.20
17370;DHT22;8802;52.402;4.920;2023-02-12T07:07:27;11.50;98.20
17370;DHT22;8802;52.402;4.920;2023-02-12T07:09:54;11.40;98.20
17370;DHT22;8802;52.402;4.920;2023-02-12T07:12:21;11.50;98.20
17370;DHT22;8802;52.402;4.920;2023-02-12T07:14:48;11.40;98.00
17370;DHT22;8802;52.402;4.920;2023-02-12T07:17:14;11.40;98.00
17370;DHT22;8802;52.402;4.920;2023-02-12T07:19:41;11.50;98.40
17370;DHT22;8802;52.402;4.920;2023-02-12T07:22:08;11.40;97.90
17370;DHT22;8802;52.402;4.920;2023-02-12T07:24:36;11.40;97.90
17370;DHT22;8802;52.402;4.920;2023-02-12T07:27:03;11.50;97.90
17370;DHT22;8802;52.402;4.920;2023-02-12T07:29:30;11.50;97.90
17370;DHT22;8802;52.402;4.920;2023-02-12T07:31:57;11.50;97.90
17370;DHT22;8802;52.402;4.920;2023-02-12T07:34:25;11.50;97.90
17370;DHT22;8802;52.402;4.920;2023-02-12T07:36:52;11.50;97.90
17370;DHT22;8802;52.402;4.920;2023-02-12T07:39:19;11.50;97.90
17370;DHT22;8802;52.402;4.920;2023-02-12T07:41:47;11.50;97.90
17370;DHT22;8802;52.402;4.920;2023-02-12T07:44:14;11.50;97.80
17370;DHT22;8802;52.402;4.920;2023-02-12T07:46:42;11.50;97.80
17370;DHT22;8802;52.402;4.920;2023-02-12T07:49:12;11.60;97.90
17370;DHT22;8802;52.402;4.920;2023-02-12T07:51:39;11.50;97.90
17370;DHT22;8802;52.402;4.920;2023-02-12T07:54:06;11.60;98.00
17370;DHT22;8802;52.402;4.920;2023-02-12T07:56:34;11.60;97.90
17370;DHT22;8802;52.402;4.920;2023-02-12T07:59:05;11.60;97.90
17370;DHT22;8802;52.402;4.920;2023-02-12T08:01:34;11.60;97.70
17370;DHT22;8802;52.402;4.920;2023-02-12T08:04:03;11.60;97.70
17370;DHT22;8802;52.402;4.920;2023-02-12T08:06:31;11.60;97.80
17370;DHT22;8802;52.402;4.920;2023-02-12T08:09:00;11.60;97.80
17370;DHT22;8802;52.402;4.920;2023-02-12T08:11:28;11.60;97.70
17370;DHT22;8802;52.402;4.920;2023-02-12T08:13:56;11.60;97.70
17370;DHT22;8802;52.402;4.920;2023-02-12T08:16:25;11.70;97.70
17370;DHT22;8802;52.402;4.920;2023-02-12T08:18:53;11.60;97.80
17370;DHT22;8802;52.402;4.920;2023-02-12T08:21:22;11.70;97.90
17370;DHT22;8802;52.402;4.920;2023-02-12T08:23:50;11.70;97.90
17370;DHT22;8802;52.402;4.920;2023-02-12T08:26:19;11.70;97.90
17370;DHT22;8802;52.402;4.920;2023-02-12T08:28:49;11.70;98.00
17370;DHT22;8802;52.402;4.920;2023-02-12T08:31:17;11.70;97.80
17370;DHT22;8802;52.402;4.920;2023-02-12T08:33:47;11.70;97.80
17370;DHT22;8802;52.402;4.920;2023-02-12T08:36:17;11.70;97.90
17370;DHT22;8802;52.402;4.920;2023-02-12T08:38:44;11.70;97.90
17370;DHT22;8802;52.402;4.920;2023-02-12T08:41:13;11.80;97.80
17370;DHT22;8802;52.402;4.920;2023-02-12T08:43:41;11.80;97.80
17370;DHT22;8802;52.402;4.920;2023-02-12T08:46:09;11.80;97.70
17370;DHT22;8802;52.402;4.920;2023-02-12T08:48:37;11.90;97.90
17370;DHT22;8802;52.402;4.920;2023-02-12T08:51:07;11.80;97.50
17370;DHT22;8802;52.402;4.920;2023-02-12T08:53:34;11.80;97.50
17370;DHT22;8802;52.402;4.920;2023-02-12T08:56:02;11.80;97.50
17370;DHT22;8802;52.402;4.920;2023-02-12T08:58:29;11.90;97.60
17370;DHT22;8802;52.402;4.920;2023-02-12T09:00:56;11.90;97.50
17370;DHT22;8802;52.402;4.920;2023-02-12T09:03:23;12.00;97.40
17370;DHT22;8802;52.402;4.920;2023-02-12T09:05:50;11.90;97.40
17370;DHT22;8802;52.402;4.920;2023-02-12T09:08:18;11.90;97.10
17370;DHT22;8802;52.402;4.920;2023-02-12T09:10:45;12.00;97.10
17370;DHT22;8802;52.402;4.920;2023-02-12T09:13:13;12.00;97.00
17370;DHT22;8802;52.402;4.920;2023-02-12T09:15:41;12.00;97.20
17370;DHT22;8802;52.402;4.920;2023-02-12T09:18:09;12.00;97.30
17370;DHT22;8802;52.402;4.920;2023-02-12T09:20:37;12.00;97.30
17370;DHT22;8802;52.402;4.920;2023-02-12T09:23:04;12.00;97.20
17370;DHT22;8802;52.402;4.920;2023-02-12T09:25:33;12.00;97.10
17370;DHT22;8802;52.402;4.920;2023-02-12T09:28:00;12.10;97.10
17370;DHT22;8802;52.402;4.920;2023-02-12T09:30:27;12.10;97.00
17370;DHT22;8802;52.402;4.920;2023-02-12T09:32:55;12.10;97.00
17370;DHT22;8802;52.402;4.920;2023-02-12T09:35:22;12.10;96.90
17370;DHT22;8802;52.402;4.920;2023-02-12T09:37:51;12.10;96.80
17370;DHT22;8802;52.402;4.920;2023-02-12T09:40:20;12.20;96.70
17370;DHT22;8802;52.402;4.920;2023-02-12T09:43:07;12.20;97.10
17370;DHT22;8802;52.402;4.920;2023-02-12T09:45:42;12.20;96.70
17370;DHT22;8802;52.402;4.920;2023-02-12T09:48:24;12.20;96.80
17370;DHT22;8802;52.402;4.920;2023-02-12T09:50:55;12.30;96.50
17370;DHT22;8802;52.402;4.920;2023-02-12T09:53:24;12.30;96.70
17370;DHT22;8802;52.402;4.920;2023-02-12T09:55:52;12.30;96.40
17370;DHT22;8802;52.402;4.920;2023-02-12T09:58:27;12.20;96.40
17370;DHT22;8802;52.402;4.920;2023-02-12T10:00:55;12.30;96.20
17370;DHT22;8802;52.402;4.920;2023-02-12T10:03:22;12.30;96.20
17370;DHT22;8802;52.402;4.920;2023-02-12T10:05:51;12.30;96.00
17370;DHT22;8802;52.402;4.920;2023-02-12T10:08:34;12.40;96.20
17370;DHT22;8802;52.402;4.920;2023-02-12T10:11:23;12.40;96.00
17370;DHT22;8802;52.402;4.920;2023-02-12T10:14:02;12.40;96.00
17370;DHT22;8802;52.402;4.920;2023-02-12T10:16:39;12.40;96.10
17370;DHT22;8802;52.402;4.920;2023-02-12T10:19:22;12.50;96.10
17370;DHT22;8802;52.402;4.920;2023-02-12T10:21:58;12.50;96.20
17370;DHT22;8802;52.402;4.920;2023-02-12T10:24:47;12.50;95.90
17370;DHT22;8802;52.402;4.920;2023-02-12T10:27:20;12.50;95.70
17370;DHT22;8802;52.402;4.920;2023-02-12T10:29:53;12.50;95.70
17370;DHT22;8802;52.402;4.920;2023-02-12T10:32:26;12.50;95.80
17370;DHT22;8802;52.402;4.920;2023-02-12T10:34:56;12.50;95.60
17370;DHT22;8802;52.402;4.920;2023-02-12T10:37:30;12.60;95.40
17370;DHT22;8802;52.402;4.920;2023-02-12T10:40:03;12.60;95.30
17370;DHT22;8802;52.402;4.920;2023-02-12T10:42:36;12.60;95.50
17370;DHT22;8802;52.402;4.920;2023-02-12T10:45:12;12.70;95.50
17370;DHT22;8802;52.402;4.920;2023-02-12T10:47:40;12.60;95.30
17370;DHT22;8802;52.402;4.920;2023-02-12T10:50:16;12.70;95.40
17370;DHT22;8802;52.402;4.920;2023-02-12T10:52:47;12.70;95.30
17370;DHT22;8802;52.402;4.920;2023-02-12T10:55:26;12.70;95.50
17370;DHT22;8802;52.402;4.920;2023-02-12T10:57:54;12.70;95.60
17370;DHT22;8802;52.402;4.920;2023-02-12T11:00:29;12.70;95.30
17370;DHT22;8802;52.402;4.920;2023-02-12T11:03:03;12.70;95.30
17370;DHT22;8802;52.402;4.920;2023-02-12T11:05:33;12.80;95.10
17370;DHT22;8802;52.402;4.920;2023-02-12T11:08:00;12.80;95.00
17370;DHT22;8802;52.402;4.920;2023-02-12T11:10:28;12.80;95.20
17370;DHT22;8802;52.402;4.920;2023-02-12T11:12:57;12.80;95.20
17370;DHT22;8802;52.402;4.920;2023-02-12T11:15:28;12.80;95.00
17370;DHT22;8802;52.402;4.920;2023-02-12T11:17:58;12.80;94.90
17370;DHT22;8802;52.402;4.920;2023-02-12T11:20:28;12.90;94.80
17370;DHT22;8802;52.402;4.920;2023-02-12T11:22:57;12.90;94.90
17370;DHT22;8802;52.402;4.920;2023-02-12T11:25:27;12.90;94.70
17370;DHT22;8802;52.402;4.920;2023-02-12T11:28:16;12.90;94.60
17370;DHT22;8802;52.402;4.920;2023-02-12T11:30:53;12.90;94.70
17370;DHT22;8802;52.402;4.920;2023-02-12T11:33:26;12.90;95.10
17370;DHT22;8802;52.402;4.920;2023-02-12T11:35:55;12.90;94.70
17370;DHT22;8802;52.402;4.920;2023-02-12T11:38:29;12.90;94.80
17370;DHT22;8802;52.402;4.920;2023-02-12T11:40:59;12.90;94.70
17370;DHT22;8802;52.402;4.920;2023-02-12T11:43:28;12.90;94.70
17370;DHT22;8802;52.402;4.920;2023-02-12T11:45:59;12.90;94.90
17370;DHT22;8802;52.402;4.920;2023-02-12T11:48:29;12.90;94.90
17370;DHT22;8802;52.402;4.920;2023-02-12T11:50:58;13.00;94.80
17370;DHT22;8802;52.402;4.920;2023-02-12T11:53:29;13.00;94.80
17370;DHT22;8802;52.402;4.920;2023-02-12T11:55:58;13.00;94.80
17370;DHT22;8802;52.402;4.920;2023-02-12T11:58:27;13.00;94.80
17370;DHT22;8802;52.402;4.920;2023-02-12T12:01:02;13.00;94.80
17370;DHT22;8802;52.402;4.920;2023-02-12T12:03:35;13.00;94.60
17370;DHT22;8802;52.402;4.920;2023-02-12T12:06:11;13.00;94.50
17370;DHT22;8802;52.402;4.920;2023-02-12T12:08:43;13.00;94.60
17370;DHT22;8802;52.402;4.920;2023-02-12T12:11:15;13.10;94.50
17370;DHT22;8802;52.402;4.920;2023-02-12T12:13:46;13.00;94.70
17370;DHT22;8802;52.402;4.920;2023-02-12T12:16:19;13.10;94.50
17370;DHT22;8802;52.402;4.920;2023-02-12T12:19:12;13.10;94.50
17370;DHT22;8802;52.402;4.920;2023-02-12T12:22:02;13.10;94.50
17370;DHT22;8802;52.402;4.920;2023-02-12T12:24:37;13.10;94.50
17370;DHT22;8802;52.402;4.920;2023-02-12T12:27:11;13.10;94.50
17370;DHT22;8802;52.402;4.920;2023-02-12T12:30:02;13.10;94.50
17370;DHT22;8802;52.402;4.920;2023-02-12T12:32:35;13.10;94.60
17370;DHT22;8802;52.402;4.920;2023-02-12T12:35:06;13.10;94.50
17370;DHT22;8802;52.402;4.920;2023-02-12T12:37:38;13.10;94.30
17370;DHT22;8802;52.402;4.920;2023-02-12T12:40:24;13.00;94.00
17370;DHT22;8802;52.402;4.920;2023-02-12T12:43:07;13.10;93.90
17370;DHT22;8802;52.402;4.920;2023-02-12T12:46:04;13.10;93.90
17370;DHT22;8802;52.402;4.920;2023-02-12T12:48:46;13.00;93.90
17370;DHT22;8802;52.402;4.920;2023-02-12T12:51:23;13.00;94.30
17370;DHT22;8802;52.402;4.920;2023-02-12T12:54:04;13.00;93.90
17370;DHT22;8802;52.402;4.920;2023-02-12T12:56:44;13.00;94.00
17370;DHT22;8802;52.402;4.920;2023-02-12T12:59:47;13.00;94.00
17370;DHT22;8802;52.402;4.920;2023-02-12T13:02:43;13.00;94.00
17370;DHT22;8802;52.402;4.920;2023-02-12T13:05:48;13.00;94.10
17370;DHT22;8802;52.402;4.920;2023-02-12T13:08:27;13.00;94.10
17370;DHT22;8802;52.402;4.920;2023-02-12T13:11:01;13.00;94.20
17370;DHT22;8802;52.402;4.920;2023-02-12T13:13:32;13.00;94.10
17370;DHT22;8802;52.402;4.920;2023-02-12T13:16:08;13.00;94.00
17370;DHT22;8802;52.402;4.920;2023-02-12T13:18:47;13.00;94.30
17370;DHT22;8802;52.402;4.920;2023-02-12T13:21:25;13.00;93.80
17370;DHT22;8802;52.402;4.920;2023-02-12T13:23:59;13.00;93.90
17370;DHT22;8802;52.402;4.920;2023-02-12T13:26:36;13.00;93.80
17370;DHT22;8802;52.402;4.920;2023-02-12T13:29:11;13.00;93.50
17370;DHT22;8802;52.402;4.920;2023-02-12T13:31:46;13.00;93.60
17370;DHT22;8802;52.402;4.920;2023-02-12T13:34:16;13.00;93.50
17370;DHT22;8802;52.402;4.920;2023-02-12T13:36:46;13.00;93.80
17370;DHT22;8802;52.402;4.920;2023-02-12T13:39:21;13.00;93.60
17370;DHT22;8802;52.402;4.920;2023-02-12T13:41:59;13.00;93.60
17370;DHT22;8802;52.402;4.920;2023-02-12T13:44:34;13.00;93.50
17370;DHT22;8802;52.402;4.920;2023-02-12T13:47:10;13.00;93.60
17370;DHT22;8802;52.402;4.920;2023-02-12T13:49:43;13.00;93.70
17370;DHT22;8802;52.402;4.920;2023-02-12T13:52:18;13.10;93.60
17370;DHT22;8802;52.402;4.920;2023-02-12T13:54:56;13.00;93.50
17370;DHT22;8802;52.402;4.920;2023-02-12T13:57:28;13.00;93.50
17370;DHT22;8802;52.402;4.920;2023-02-12T13:59:55;13.00;93.50
17370;DHT22;8802;52.402;4.920;2023-02-12T14:02:46;13.00;93.50
17370;DHT22;8802;52.402;4.920;2023-02-12T14:05:22;13.00;93.60
17370;DHT22;8802;52.402;4.920;2023-02-12T14:07:53;13.00;93.70
17370;DHT22;8802;52.402;4.920;2023-02-12T14:10:26;13.00;93.50
17370;DHT22;8802;52.402;4.920;2023-02-12T14:12:57;13.00;93.50
17370;DHT22;8802;52.402;4.920;2023-02-12T14:15:31;12.90;93.40
17370;DHT22;8802;52.402;4.920;2023-02-12T14:18:06;12.90;93.30
17370;DHT22;8802;52.402;4.920;2023-02-12T14:20:34;12.90;93.60
17370;DHT22;8802;52.402;4.920;2023-02-12T14:23:27;12.90;93.50
17370;DHT22;8802;52.402;4.920;2023-02-12T14:26:00;12.90;93.30
17370;DHT22;8802;52.402;4.920;2023-02-12T14:28:40;12.90;93.40
17370;DHT22;8802;52.402;4.920;2023-02-12T14:31:32;12.90;93.40
17370;DHT22;8802;52.402;4.920;2023-02-12T14:37:36;12.90;93.50
17370;DHT22;8802;52.402;4.920;2023-02-12T14:40:35;12.90;93.70
17370;DHT22;8802;52.402;4.920;2023-02-12T14:43:25;12.80;93.40
17370;DHT22;8802;52.402;4.920;2023-02-12T14:45:53;12.80;93.40
17370;DHT22;8802;52.402;4.920;2023-02-12T14:48:44;12.80;93.50
17370;DHT22;8802;52.402;4.920;2023-02-12T14:51:18;12.80;93.40
17370;DHT22;8802;52.402;4.920;2023-02-12T14:53:47;12.80;93.70
17370;DHT22;8802;52.402;4.920;2023-02-12T14:56:20;12.80;93.70
17370;DHT22;8802;52.402;4.920;2023-02-12T14:58:48;12.80;93.60
17370;DHT22;8802;52.402;4.920;2023-02-12T15:01:16;12.70;93.60
17370;DHT22;8802;52.402;4.920;2023-02-12T15:03:47;12.70;93.50
17370;DHT22;8802;52.402;4.920;2023-02-12T15:06:16;12.80;93.30
17370;DHT22;8802;52.402;4.920;2023-02-12T15:08:50;12.70;93.50
17370;DHT22;8802;52.402;4.920;2023-02-12T15:11:32;12.70;93.70
17370;DHT22;8802;52.402;4.920;2023-02-12T15:14:04;12.70;93.60
17370;DHT22;8802;52.402;4.920;2023-02-12T15:16:44;12.70;93.40
17370;DHT22;8802;52.402;4.920;2023-02-12T15:19:25;12.70;93.10
17370;DHT22;8802;52.402;4.920;2023-02-12T15:21:54;12.70;93.30
17370;DHT22;8802;52.402;4.920;2023-02-12T15:24:23;12.70;93.80
17370;DHT22;8802;52.402;4.920;2023-02-12T15:26:52;12.70;93.40
17370;DHT22;8802;52.402;4.920;2023-02-12T15:29:23;12.60;93.50
17370;DHT22;8802;52.402;4.920;2023-02-12T15:31:53;12.60;94.10
17370;DHT22;8802;52.402;4.920;2023-02-12T15:34:23;12.60;93.50
17370;DHT22;8802;52.402;4.920;2023-02-12T15:36:50;12.60;93.30
17370;DHT22;8802;52.402;4.920;2023-02-12T15:39:20;12.60;93.50
17370;DHT22;8802;52.402;4.920;2023-02-12T15:41:48;12.60;94.00
17370;DHT22;8802;52.402;4.920;2023-02-12T15:44:25;12.60;93.70
17370;DHT22;8802;52.402;4.920;2023-02-12T15:46:54;12.60;93.40
17370;DHT22;8802;52.402;4.920;2023-02-12T15:49:29;12.60;93.30
17370;DHT22;8802;52.402;4.920;2023-02-12T15:51:58;12.60;93.40
17370;DHT22;8802;52.402;4.920;2023-02-12T15:54:26;12.60;93.50
17370;DHT22;8802;52.402;4.920;2023-02-12T15:56:53;12.60;93.40
17370;DHT22;8802;52.402;4.920;2023-02-12T15:59:23;12.60;93.40
17370;DHT22;8802;52.402;4.920;2023-02-12T16:01:53;12.60;93.60
17370;DHT22;8802;52.402;4.920;2023-02-12T16:04:20;12.60;93.70
17370;DHT22;8802;52.402;4.920;2023-02-12T16:06:48;12.50;93.90
17370;DHT22;8802;52.402;4.920;2023-02-12T16:09:17;12.60;93.60
17370;DHT22;8802;52.402;4.920;2023-02-12T16:11:47;12.50;93.60
17370;DHT22;8802;52.402;4.920;2023-02-12T16:14:21;12.50;93.50
17370;DHT22;8802;52.402;4.920;2023-02-12T16:16:51;12.50;93.40
17370;DHT22;8802;52.402;4.920;2023-02-12T16:19:21;12.50;93.50
17370;DHT22;8802;52.402;4.920;2023-02-12T16:21:51;12.50;93.50